createdAt,value
2018-12-15T00:01:28.388Z,17.00
2018-12-15T00:03:56.906Z,15.77
2018-12-15T00:06:25.374Z,16.87
2018-12-15T00:08:53.917Z,19.63
2018-12-15T00:11:22.336Z,20.07
2018-12-15T00:13:50.825Z,17.33
2018-12-15T00:16:19.300Z,21.30
2018-12-15T00:18:47.794Z,20.07
2018-12-15T00:21:16.232Z,22.40
2018-12-15T00:23:44.699Z,20.53
2018-12-15T00:26:13.195Z,21.20
2018-12-15T00:28:41.816Z,20.43
2018-12-15T00:31:10.276Z,19.83
2018-12-15T00:33:38.742Z,18.27
2018-12-15T00:36:07.182Z,19.77
2018-12-15T00:38:35.666Z,23.07
2018-12-15T00:41:04.121Z,18.90
2018-12-15T00:43:32.591Z,22.40
2018-12-15T00:46:01.061Z,16.43
2018-12-15T00:48:29.612Z,17.97
2018-12-15T00:50:58.059Z,17.43
2018-12-15T00:53:26.540Z,15.17
2018-12-15T00:55:55.064Z,16.17
2018-12-15T00:58:23.553Z,16.40
2018-12-15T01:00:52.032Z,16.77
2018-12-15T01:03:20.521Z,17.73
2018-12-15T01:05:49.008Z,14.90
2018-12-15T01:08:17.530Z,15.87
2018-12-15T01:10:46.009Z,14.80
2018-12-15T01:13:14.624Z,17.17
2018-12-15T01:15:45.032Z,16.23
2018-12-15T01:18:14.910Z,16.03
2018-12-15T01:20:43.360Z,16.23
2018-12-15T01:23:11.885Z,16.57
2018-12-15T01:25:40.335Z,16.20
2018-12-15T01:28:08.811Z,15.27
2018-12-15T01:30:37.259Z,16.57
2018-12-15T01:33:05.843Z,18.00
2018-12-15T01:35:34.360Z,17.03
2018-12-15T01:38:02.857Z,17.43
2018-12-15T01:40:31.369Z,15.63
2018-12-15T01:42:59.860Z,16.33
2018-12-15T01:45:28.463Z,15.50
2018-12-15T01:47:56.957Z,16.63
2018-12-15T01:50:25.415Z,15.13
2018-12-15T01:52:53.905Z,15.13
2018-12-15T01:55:22.347Z,16.77
2018-12-15T01:57:50.863Z,16.20
2018-12-15T02:00:19.559Z,15.70
2018-12-15T02:02:48.049Z,15.00
2018-12-15T02:05:16.503Z,16.50
2018-12-15T02:07:44.984Z,14.57
2018-12-15T02:10:13.664Z,14.57
2018-12-15T02:12:42.143Z,14.63
2018-12-15T02:15:10.624Z,14.93
2018-12-15T02:17:39.072Z,14.97
2018-12-15T02:20:07.794Z,15.63
2018-12-15T02:22:36.248Z,14.67
2018-12-15T02:25:05.137Z,17.30
2018-12-15T02:27:33.595Z,12.77
2018-12-15T02:30:02.122Z,14.87
2018-12-15T02:32:30.610Z,14.60
2018-12-15T02:34:59.156Z,17.60
2018-12-15T02:37:29.650Z,13.87
2018-12-15T02:39:58.174Z,17.13
2018-12-15T02:42:26.663Z,14.60
2018-12-15T02:44:55.158Z,14.97
2018-12-15T02:47:23.604Z,15.17
2018-12-15T02:49:52.123Z,14.30
2018-12-15T02:52:20.583Z,14.53
2018-12-15T02:54:49.081Z,15.40
2018-12-15T02:57:17.581Z,14.27
2018-12-15T02:59:46.075Z,14.73
2018-12-15T03:02:14.547Z,12.63
2018-12-15T03:04:43.012Z,13.13
2018-12-15T03:07:11.488Z,14.80
2018-12-15T03:09:39.969Z,14.23
2018-12-15T03:12:08.435Z,14.83
2018-12-15T03:14:36.926Z,12.60
2018-12-15T03:17:06.819Z,13.17
2018-12-15T03:19:35.434Z,11.97
2018-12-15T03:22:03.914Z,13.13
2018-12-15T03:24:32.490Z,14.43
2018-12-15T03:27:00.974Z,14.47
2018-12-15T03:29:29.485Z,13.07
2018-12-15T03:31:58.030Z,13.03
2018-12-15T03:34:26.506Z,13.20
2018-12-15T03:36:54.964Z,14.07
2018-12-15T03:39:23.571Z,15.43
2018-12-15T03:41:53.116Z,13.70
2018-12-15T03:44:21.631Z,14.87
2018-12-15T03:46:50.083Z,15.07
2018-12-15T03:49:18.562Z,14.17
2018-12-15T03:51:47.147Z,14.80
2018-12-15T03:54:15.677Z,13.30
2018-12-15T03:56:44.149Z,14.60
2018-12-15T03:59:12.660Z,14.53
2018-12-15T04:01:41.252Z,14.87
2018-12-15T04:04:09.756Z,13.93
2018-12-15T04:06:38.519Z,14.00
2018-12-15T04:09:07.561Z,12.90
2018-12-15T04:11:35.996Z,13.73
2018-12-15T04:14:04.644Z,13.97
2018-12-15T04:16:33.093Z,14.67
2018-12-15T04:19:01.565Z,14.17
2018-12-15T04:21:30.041Z,12.53
2018-12-15T04:23:58.527Z,12.43
2018-12-15T04:26:26.956Z,12.67
2018-12-15T04:28:55.448Z,12.23
2018-12-15T04:31:23.896Z,12.50
2018-12-15T04:33:52.391Z,13.33
2018-12-15T04:36:20.841Z,12.53
2018-12-15T04:38:49.327Z,13.30
2018-12-15T04:41:17.809Z,12.47
2018-12-15T04:43:46.387Z,12.53
2018-12-15T04:46:14.845Z,13.53
2018-12-15T04:48:43.335Z,11.97
2018-12-15T04:51:11.764Z,11.93
2018-12-15T04:53:40.212Z,14.17
2018-12-15T04:56:08.681Z,12.87
2018-12-15T04:58:37.151Z,11.90
2018-12-15T05:01:05.704Z,11.53
2018-12-15T05:03:34.153Z,13.17
2018-12-15T05:06:02.640Z,12.93
2018-12-15T05:08:31.085Z,13.30
2018-12-15T05:10:59.552Z,12.90
2018-12-15T05:13:28.017Z,12.17
2018-12-15T05:15:56.552Z,11.10
2018-12-15T05:18:25.049Z,11.43
2018-12-15T05:20:53.535Z,11.27
2018-12-15T05:23:21.981Z,12.43
2018-12-15T05:25:50.441Z,12.67
2018-12-15T05:28:18.917Z,12.17
2018-12-15T05:30:47.406Z,11.87
2018-12-15T05:33:15.900Z,13.07
2018-12-15T05:35:44.392Z,14.27
2018-12-15T05:38:12.832Z,13.43
2018-12-15T05:40:41.305Z,12.00
2018-12-15T05:43:09.755Z,11.53
2018-12-15T05:45:38.227Z,12.67
2018-12-15T05:48:06.659Z,11.57
2018-12-15T05:50:35.131Z,10.90
2018-12-15T05:53:03.562Z,11.97
2018-12-15T05:55:32.118Z,11.70
2018-12-15T05:58:00.571Z,13.57
2018-12-15T06:00:29.045Z,12.23
2018-12-15T06:02:57.489Z,13.97
2018-12-15T06:05:26.007Z,12.30
2018-12-15T06:07:54.452Z,12.43
2018-12-15T06:10:22.935Z,10.30
2018-12-15T06:12:51.412Z,11.13
2018-12-15T06:15:19.902Z,11.63
2018-12-15T06:17:48.358Z,12.70
2018-12-15T06:20:16.819Z,13.20
2018-12-15T06:22:45.983Z,12.13
2018-12-15T06:25:14.461Z,12.10
2018-12-15T06:27:42.925Z,12.93
2018-12-15T06:30:11.531Z,12.03
2018-12-15T06:32:39.971Z,12.80
2018-12-15T06:35:08.803Z,12.70
2018-12-15T06:37:37.244Z,11.83
2018-12-15T06:40:06.719Z,13.70
2018-12-15T06:42:35.164Z,13.17
2018-12-15T06:45:03.763Z,11.37
2018-12-15T06:47:32.247Z,12.33
2018-12-15T06:50:00.736Z,12.47
2018-12-15T06:52:29.208Z,13.47
2018-12-15T06:54:57.709Z,13.17
2018-12-15T06:57:26.173Z,12.63
2018-12-15T06:59:54.733Z,11.27
2018-12-15T07:02:23.200Z,13.00
2018-12-15T07:04:51.691Z,13.53
2018-12-15T07:07:20.121Z,12.47
2018-12-15T07:09:48.585Z,13.90
2018-12-15T07:12:17.097Z,11.77
2018-12-15T07:14:45.563Z,12.77
2018-12-15T07:17:14.064Z,13.83
2018-12-15T07:19:42.540Z,12.80
2018-12-15T07:22:11.028Z,14.27
2018-12-15T07:24:39.516Z,12.97
2018-12-15T07:27:08.033Z,12.27
2018-12-15T07:29:36.490Z,12.10
2018-12-15T07:32:05.016Z,14.37
2018-12-15T07:34:39.107Z,15.27
2018-12-15T07:37:07.636Z,13.30
2018-12-15T07:39:36.194Z,11.87
2018-12-15T07:42:04.953Z,12.17
2018-12-15T07:44:33.445Z,13.60
2018-12-15T07:47:14.880Z,13.83
2018-12-15T07:49:43.314Z,13.00
2018-12-15T07:52:11.942Z,13.27
2018-12-15T07:54:40.441Z,13.07
2018-12-15T07:57:09.041Z,12.60
2018-12-15T07:59:37.555Z,14.27
2018-12-15T08:02:06.259Z,17.67
2018-12-15T08:04:34.711Z,15.83
2018-12-15T08:07:03.971Z,16.43
2018-12-15T08:09:33.958Z,14.77
2018-12-15T08:12:07.719Z,16.63
2018-12-15T08:14:36.249Z,14.60
2018-12-15T08:17:04.828Z,14.70
2018-12-15T08:19:33.339Z,15.20
2018-12-15T08:22:01.859Z,15.40
2018-12-15T08:24:30.373Z,14.77
2018-12-15T08:26:58.880Z,19.10
2018-12-15T08:29:27.531Z,17.90
2018-12-15T08:31:56.047Z,17.53
2018-12-15T08:34:24.637Z,20.00
2018-12-15T08:36:53.220Z,16.47
2018-12-15T08:39:21.800Z,16.13
2018-12-15T08:41:50.327Z,15.83
2018-12-15T08:44:18.831Z,16.67
2018-12-15T08:46:47.570Z,16.43
2018-12-15T08:49:16.127Z,15.63
2018-12-15T08:51:45.234Z,17.90
2018-12-15T08:54:13.707Z,17.63
2018-12-15T08:56:42.194Z,15.97
2018-12-15T08:59:10.735Z,51.17
2018-12-15T09:01:39.495Z,29.43
2018-12-15T09:04:07.983Z,22.27
2018-12-15T09:06:36.560Z,18.37
2018-12-15T09:09:06.928Z,19.03
2018-12-15T09:11:35.406Z,21.00
2018-12-15T09:14:03.875Z,18.87
2018-12-15T09:16:32.385Z,20.37
2018-12-15T09:19:00.820Z,17.73
2018-12-15T09:21:29.311Z,17.33
2018-12-15T09:23:57.788Z,17.37
2018-12-15T09:26:26.412Z,14.87
2018-12-15T09:28:54.840Z,30.23
2018-12-15T09:31:23.458Z,31.83
2018-12-15T09:33:51.903Z,24.20
2018-12-15T09:36:20.372Z,21.90
2018-12-15T09:38:48.940Z,26.00
2018-12-15T09:41:17.477Z,23.30
2018-12-15T09:43:45.977Z,27.47
2018-12-15T09:46:14.512Z,17.57
2018-12-15T09:48:42.964Z,14.73
2018-12-15T09:51:12.360Z,19.67
2018-12-15T09:53:46.785Z,16.97
2018-12-15T09:56:15.466Z,18.30
2018-12-15T09:58:44.224Z,18.67
2018-12-15T10:01:13.229Z,17.37
2018-12-15T10:03:41.684Z,46.10
2018-12-15T10:06:10.211Z,39.07
2018-12-15T10:08:38.712Z,25.87
2018-12-15T10:11:07.163Z,21.67
2018-12-15T10:13:35.607Z,17.57
2018-12-15T10:16:04.197Z,22.13
2018-12-15T10:18:32.914Z,27.90
2018-12-15T10:21:01.502Z,22.43
2018-12-15T10:23:30.024Z,21.83
2018-12-15T10:25:58.488Z,23.83
2018-12-15T10:28:26.967Z,21.90
2018-12-15T10:31:01.083Z,23.43
2018-12-15T10:33:29.589Z,24.00
2018-12-15T10:35:59.200Z,25.23
2018-12-15T10:38:28.020Z,25.33
2018-12-15T10:40:56.523Z,22.87
2018-12-15T10:43:25.021Z,23.30
2018-12-15T10:45:53.507Z,23.03
2018-12-15T10:48:22.029Z,22.63
2018-12-15T10:50:50.511Z,22.33
2018-12-15T10:53:18.984Z,25.80
2018-12-15T10:55:47.781Z,23.83
2018-12-15T10:58:16.252Z,24.47
2018-12-15T11:00:49.919Z,20.80
2018-12-15T11:03:18.416Z,25.00
2018-12-15T11:05:46.870Z,25.10
2018-12-15T11:08:15.340Z,23.57
2018-12-15T11:10:43.957Z,25.30
2018-12-15T11:13:12.427Z,24.80
2018-12-15T11:15:40.886Z,21.43
2018-12-15T11:18:09.676Z,22.33
2018-12-15T11:20:38.331Z,21.77
2018-12-15T11:23:06.810Z,19.90
2018-12-15T11:25:35.237Z,20.83
2018-12-15T11:28:03.719Z,99.60
2018-12-15T11:30:32.137Z,30.60
2018-12-15T11:33:00.625Z,84.63
2018-12-15T11:35:29.093Z,23.53
2018-12-15T11:37:57.608Z,21.80
2018-12-15T11:40:26.087Z,32.07
2018-12-15T11:42:54.615Z,25.90
2018-12-15T11:45:23.138Z,26.93
2018-12-15T11:47:51.666Z,26.30
2018-12-15T11:50:20.237Z,24.53
2018-12-15T11:52:48.729Z,19.70
2018-12-15T11:55:17.160Z,22.97
2018-12-15T11:57:45.640Z,19.77
2018-12-15T12:00:14.318Z,19.10
2018-12-15T12:02:42.813Z,20.57
2018-12-15T12:05:11.300Z,20.30
2018-12-15T12:07:39.779Z,22.37
2018-12-15T12:10:08.398Z,21.17
2018-12-15T12:12:36.888Z,21.70
2018-12-15T12:15:05.827Z,21.13
2018-12-15T12:17:34.308Z,21.00
2018-12-15T12:20:03.057Z,22.87
2018-12-15T12:22:31.521Z,22.10
2018-12-15T12:24:59.959Z,21.50
2018-12-15T12:27:28.411Z,21.07
2018-12-15T12:29:56.984Z,22.27
2018-12-15T12:32:25.440Z,22.17
2018-12-15T12:34:53.887Z,22.17
2018-12-15T12:37:22.384Z,27.57
2018-12-15T12:39:50.822Z,24.07
2018-12-15T12:42:19.304Z,19.83
2018-12-15T12:44:47.741Z,23.33
2018-12-15T12:47:16.178Z,21.00
2018-12-15T12:49:44.623Z,21.13
2018-12-15T12:52:13.087Z,20.30
2018-12-15T12:54:41.520Z,20.43
2018-12-15T12:57:10.006Z,20.30
2018-12-15T12:59:38.443Z,22.67
2018-12-15T13:02:06.992Z,22.23
2018-12-15T13:04:35.461Z,23.10
2018-12-15T13:07:03.906Z,23.37
2018-12-15T13:09:32.373Z,23.90
2018-12-15T13:12:00.801Z,22.10
2018-12-15T13:14:29.392Z,20.30
2018-12-15T13:16:57.797Z,20.00
2018-12-15T13:19:26.260Z,21.63
2018-12-15T13:21:54.695Z,20.07
2018-12-15T13:24:23.327Z,21.17
2018-12-15T13:26:51.752Z,23.00
2018-12-15T13:29:20.336Z,21.33
2018-12-15T13:31:48.762Z,18.27
2018-12-15T13:34:17.236Z,19.43
2018-12-15T13:36:45.667Z,20.90
2018-12-15T13:39:14.132Z,20.77
2018-12-15T13:41:42.568Z,19.47
2018-12-15T13:44:11.013Z,22.20
2018-12-15T13:46:39.456Z,19.47
2018-12-15T13:49:07.939Z,21.23
2018-12-15T13:51:36.571Z,18.93
2018-12-15T13:54:05.074Z,19.63
2018-12-15T13:56:33.542Z,19.77
2018-12-15T13:59:02.027Z,21.90
2018-12-15T14:01:30.761Z,28.57
2018-12-15T14:03:59.463Z,28.67
2018-12-15T14:06:28.056Z,27.43
2018-12-15T14:08:56.523Z,22.37
2018-12-15T14:11:24.950Z,20.93
2018-12-15T14:13:53.415Z,19.97
2018-12-15T14:16:22.904Z,20.63
2018-12-15T14:18:51.375Z,21.53
2018-12-15T14:21:19.835Z,22.27
2018-12-15T14:23:48.301Z,21.20
2018-12-15T14:26:16.754Z,21.67
2018-12-15T14:28:45.248Z,22.63
2018-12-15T14:31:13.820Z,24.00
2018-12-15T14:33:42.291Z,21.43
2018-12-15T14:36:10.735Z,22.70
2018-12-15T14:38:39.221Z,24.53
2018-12-15T14:41:07.642Z,23.47
2018-12-15T14:43:36.121Z,24.70
2018-12-15T14:46:04.575Z,23.57
2018-12-15T14:48:33.016Z,21.93
2018-12-15T14:51:01.477Z,23.23
2018-12-15T14:53:29.943Z,22.50
2018-12-15T14:55:58.380Z,23.77
2018-12-15T15:00:55.961Z,21.80
2018-12-15T15:03:24.580Z,21.00
2018-12-15T15:05:53.060Z,23.00
2018-12-15T15:08:21.540Z,21.50
2018-12-15T15:10:49.982Z,20.73
2018-12-15T15:13:18.468Z,23.50
2018-12-15T15:15:46.919Z,24.67
2018-12-15T15:18:15.388Z,24.77
2018-12-15T15:20:43.836Z,23.60
2018-12-15T15:23:12.290Z,23.93
2018-12-15T15:25:40.748Z,26.10
2018-12-15T15:28:09.208Z,24.73
2018-12-15T15:30:37.795Z,23.83
2018-12-15T15:33:06.276Z,29.97
2018-12-15T15:35:34.730Z,25.13
2018-12-15T15:38:03.188Z,25.10
2018-12-15T15:40:31.657Z,25.40
2018-12-15T15:43:00.117Z,27.37
2018-12-15T15:45:28.959Z,27.63
2018-12-15T15:47:57.644Z,29.43
2018-12-15T15:50:26.299Z,24.93
2018-12-15T15:52:55.371Z,26.40
2018-12-15T15:55:24.206Z,33.77
2018-12-15T15:57:52.841Z,35.60
2018-12-15T16:00:21.321Z,23.87
2018-12-15T16:02:49.801Z,25.27
2018-12-15T16:05:19.024Z,25.17
2018-12-15T16:07:47.495Z,20.57
2018-12-15T16:11:40.373Z,28.73
2018-12-15T16:14:08.935Z,24.17
2018-12-15T16:16:37.425Z,25.87
2018-12-15T16:19:06.896Z,22.83
2018-12-15T16:21:35.451Z,34.37
2018-12-15T16:24:04.168Z,67.03
2018-12-15T16:26:32.636Z,27.20
2018-12-15T16:29:01.121Z,26.37
2018-12-15T16:31:29.643Z,26.33
2018-12-15T16:33:58.103Z,28.80
2018-12-15T16:36:26.539Z,28.03
2018-12-15T16:38:55.106Z,25.17
2018-12-15T16:41:23.531Z,26.63
2018-12-15T16:43:51.995Z,23.07
2018-12-15T16:46:20.412Z,22.70
2018-12-15T16:48:48.841Z,21.80
2018-12-15T16:51:17.428Z,25.07
2018-12-15T16:53:45.990Z,23.03
2018-12-15T16:56:14.536Z,25.73
2018-12-15T16:58:42.963Z,23.93
2018-12-15T17:01:11.407Z,24.17
2018-12-15T17:03:39.844Z,24.60
2018-12-15T17:06:08.441Z,22.80
2018-12-15T17:08:36.869Z,22.10
2018-12-15T17:11:05.356Z,30.13
2018-12-15T17:13:33.787Z,25.97
2018-12-15T17:16:02.268Z,22.53
2018-12-15T17:18:30.807Z,23.70
2018-12-15T17:20:59.280Z,24.43
2018-12-15T17:23:27.711Z,26.47
2018-12-15T17:25:56.163Z,25.87
2018-12-15T17:28:24.592Z,27.97
2018-12-15T17:30:53.027Z,26.73
2018-12-15T17:33:21.464Z,24.40
2018-12-15T17:35:49.920Z,31.80
2018-12-15T17:38:19.926Z,23.73
2018-12-15T17:40:48.541Z,38.57
2018-12-15T17:43:16.976Z,31.20
2018-12-15T17:45:45.449Z,31.50
2018-12-15T17:48:13.951Z,23.10
2018-12-15T17:50:42.466Z,24.50
2018-12-15T17:53:10.903Z,21.70
2018-12-15T17:55:39.353Z,20.60
2018-12-15T17:58:07.775Z,24.23
2018-12-15T18:00:36.234Z,25.13
2018-12-15T18:03:04.672Z,24.30
2018-12-15T18:05:33.115Z,21.77
2018-12-15T18:08:01.542Z,23.30
2018-12-15T18:10:30.016Z,23.80
2018-12-15T18:12:58.441Z,25.03
2018-12-15T18:15:26.902Z,26.30
2018-12-15T18:17:55.404Z,24.87
2018-12-15T18:20:23.886Z,25.20
2018-12-15T18:22:52.332Z,25.43
2018-12-15T18:25:20.799Z,30.03
2018-12-15T18:27:49.227Z,31.50
2018-12-15T18:30:17.696Z,30.30
2018-12-15T18:32:46.140Z,31.67
2018-12-15T18:35:14.584Z,33.77
2018-12-15T18:37:43.020Z,38.07
2018-12-15T18:40:11.509Z,34.57
2018-12-15T18:42:39.926Z,33.93
2018-12-15T18:45:08.612Z,31.23
2018-12-15T18:47:37.044Z,30.63
2018-12-15T18:50:07.299Z,38.20
2018-12-15T18:52:35.737Z,38.00
2018-12-15T18:55:04.592Z,35.43
2018-12-15T18:57:33.027Z,30.50
2018-12-15T19:00:01.491Z,30.93
2018-12-15T19:02:29.930Z,34.17
2018-12-15T19:04:58.382Z,36.47
2018-12-15T19:07:26.808Z,36.93
2018-12-15T19:09:55.268Z,42.47
2018-12-15T19:12:23.727Z,34.17
2018-12-15T19:14:52.180Z,34.90
2018-12-15T19:17:20.621Z,30.67
2018-12-15T19:19:49.083Z,33.47
2018-12-15T19:22:17.512Z,36.03
2018-12-15T19:24:46.449Z,37.83
2018-12-15T19:27:14.899Z,33.27
2018-12-15T19:29:43.324Z,31.33
2018-12-15T19:32:11.779Z,31.73
2018-12-15T19:34:40.232Z,32.17
2018-12-15T19:37:08.826Z,29.47
2018-12-15T19:39:37.300Z,29.23
2018-12-15T19:42:05.752Z,29.40
2018-12-15T19:44:34.203Z,30.43
2018-12-15T19:47:02.684Z,27.20
2018-12-15T19:49:31.117Z,28.50
2018-12-15T19:51:59.599Z,28.50
2018-12-15T19:54:28.040Z,27.90
2018-12-15T19:56:56.540Z,29.80
2018-12-15T19:59:24.972Z,27.00
2018-12-15T20:01:53.459Z,24.73
2018-12-15T20:04:21.908Z,26.83
2018-12-15T20:06:50.400Z,26.60
2018-12-15T20:09:18.857Z,30.50
2018-12-15T20:11:47.463Z,42.83
2018-12-15T20:14:15.924Z,32.30
2018-12-15T20:16:44.400Z,29.87
2018-12-15T20:19:12.817Z,30.23
2018-12-15T20:21:41.300Z,31.03
2018-12-15T20:24:09.823Z,31.60
2018-12-15T20:26:38.290Z,34.37
2018-12-15T20:29:06.740Z,29.60
2018-12-15T20:31:35.213Z,34.03
2018-12-15T20:34:03.676Z,31.37
2018-12-15T20:36:32.160Z,32.87
2018-12-15T20:39:00.618Z,31.17
2018-12-15T20:41:29.098Z,32.20
2018-12-15T20:43:57.544Z,31.10
2018-12-15T20:46:26.045Z,32.20
2018-12-15T20:48:54.520Z,32.93
2018-12-15T20:51:23.019Z,34.43
2018-12-15T20:53:51.480Z,33.63
2018-12-15T20:56:19.979Z,36.20
2018-12-15T20:58:48.560Z,38.77
2018-12-15T21:01:17.065Z,38.90
2018-12-15T21:03:45.529Z,39.57
2018-12-15T21:06:14.039Z,37.27
2018-12-15T21:08:42.483Z,36.70
2018-12-15T21:11:11.013Z,34.03
2018-12-15T21:13:39.484Z,36.63
2018-12-15T21:16:08.023Z,44.63
2018-12-15T21:18:37.073Z,51.37
2018-12-15T21:21:05.597Z,61.90
2018-12-15T21:23:34.083Z,51.73
2018-12-15T21:26:02.685Z,44.83
2018-12-15T21:28:31.139Z,44.80
2018-12-15T21:30:59.653Z,38.03
2018-12-15T21:33:28.136Z,34.90
2018-12-15T21:35:56.654Z,32.17
2018-12-15T21:38:25.122Z,30.70
2018-12-15T21:40:53.580Z,30.43
2018-12-15T21:43:22.144Z,34.80
2018-12-15T21:45:50.639Z,29.93
2018-12-15T21:48:19.105Z,33.30
2018-12-15T21:50:47.587Z,34.07
2018-12-15T21:53:16.080Z,31.83
2018-12-15T21:55:44.545Z,35.97
2018-12-15T21:58:13.041Z,34.20
2018-12-15T22:00:41.598Z,37.60
2018-12-15T22:03:10.078Z,36.77
2018-12-15T22:05:38.576Z,43.47
2018-12-15T22:08:07.193Z,40.10
2018-12-15T22:10:36.172Z,43.60
2018-12-15T22:13:04.903Z,41.60
2018-12-15T22:15:33.368Z,36.77
2018-12-15T22:18:01.856Z,36.67
2018-12-15T22:20:30.529Z,33.67
2018-12-15T22:22:59.006Z,32.57
2018-12-15T22:25:27.464Z,36.10
2018-12-15T22:27:55.944Z,33.37
2018-12-15T22:30:24.410Z,28.60
2018-12-15T22:32:52.909Z,31.60
2018-12-15T22:35:21.348Z,33.63
2018-12-15T22:37:49.844Z,29.77
2018-12-15T22:40:18.305Z,33.27
2018-12-15T22:42:46.822Z,39.77
2018-12-15T22:45:15.302Z,34.57
2018-12-15T22:47:43.805Z,33.80
2018-12-15T22:50:12.480Z,30.40
2018-12-15T22:52:40.968Z,31.67
2018-12-15T22:55:09.564Z,30.70
2018-12-15T22:57:38.044Z,33.87
2018-12-15T23:00:08.856Z,41.37
2018-12-15T23:02:37.346Z,38.07
2018-12-15T23:05:05.983Z,37.97
2018-12-15T23:07:34.470Z,40.00
2018-12-15T23:10:02.941Z,35.77
2018-12-15T23:12:31.527Z,35.73
2018-12-15T23:15:00.028Z,37.37
2018-12-15T23:17:28.526Z,48.43
2018-12-15T23:19:56.977Z,35.90
2018-12-15T23:22:25.478Z,48.60
2018-12-15T23:24:53.955Z,46.07
2018-12-15T23:27:22.571Z,35.43
2018-12-15T23:29:51.043Z,41.83
2018-12-15T23:32:19.524Z,40.97
2018-12-15T23:34:48.968Z,33.20
2018-12-15T23:37:17.446Z,32.10
2018-12-15T23:39:45.923Z,32.03
2018-12-15T23:42:14.411Z,34.10
2018-12-15T23:44:42.871Z,32.67
2018-12-15T23:47:11.368Z,34.47
2018-12-15T23:49:39.843Z,34.03
2018-12-15T23:52:08.333Z,31.43
2018-12-15T23:54:36.857Z,30.33
2018-12-15T23:57:05.364Z,33.23
2018-12-15T23:59:33.820Z,34.13
